sensor_id;sensor_type;location;lat;lon;timestamp;P1;durP1;ratioP1;P2;durP2;ratioP2
14603;SDS011;7388;51.078;13.740;2023-08-06T00:00:22;5.43;;;4.93;;
14603;SDS011;7388;51.078;13.740;2023-08-06T00:02:48;6.63;;;5.50;;
14603;SDS011;7388;51.078;13.740;2023-08-06T00:05:14;6.30;;;5.60;;
14603;SDS011;7388;51.078;13.740;2023-08-06T00:07:45;6.60;;;5.70;;
14603;SDS011;7388;51.078;13.740;2023-08-06T00:10:12;6.67;;;6.10;;
14603;SDS011;7388;51.078;13.740;2023-08-06T00:12:37;6.63;;;5.90;;
14603;SDS011;7388;51.078;13.740;2023-08-06T00:15:03;6.50;;;6.00;;
14603;SDS011;7388;51.078;13.740;2023-08-06T00:17:30;7.60;;;6.80;;
14603;SDS011;7388;51.078;13.740;2023-08-06T00:19:55;5.80;;;5.30;;
14603;SDS011;7388;51.078;13.740;2023-08-06T00:22:21;5.87;;;5.30;;
14603;SDS011;7388;51.078;13.740;2023-08-06T00:24:47;6.63;;;6.03;;
14603;SDS011;7388;51.078;13.740;2023-08-06T00:27:13;6.30;;;5.70;;
14603;SDS011;7388;51.078;13.740;2023-08-06T00:29:38;6.33;;;5.37;;
14603;SDS011;7388;51.078;13.740;2023-08-06T00:32:04;5.73;;;5.20;;
14603;SDS011;7388;51.078;13.740;2023-08-06T00:34:30;6.10;;;5.60;;
14603;SDS011;7388;51.078;13.740;2023-08-06T00:36:56;6.43;;;5.80;;
14603;SDS011;7388;51.078;13.740;2023-08-06T00:39:22;6.00;;;5.50;;
14603;SDS011;7388;51.078;13.740;2023-08-06T00:41:48;6.40;;;5.90;;
14603;SDS011;7388;51.078;13.740;2023-08-06T00:44:13;5.13;;;4.70;;
14603;SDS011;7388;51.078;13.740;2023-08-06T00:46:39;6.50;;;5.90;;
14603;SDS011;7388;51.078;13.740;2023-08-06T00:49:05;5.10;;;4.60;;
14603;SDS011;7388;51.078;13.740;2023-08-06T00:51:31;6.33;;;5.63;;
14603;SDS011;7388;51.078;13.740;2023-08-06T00:53:57;6.67;;;5.97;;
14603;SDS011;7388;51.078;13.740;2023-08-06T00:56:24;6.47;;;5.87;;
14603;SDS011;7388;51.078;13.740;2023-08-06T00:58:50;7.00;;;5.37;;
14603;SDS011;7388;51.078;13.740;2023-08-06T01:01:16;10.10;;;6.30;;
14603;SDS011;7388;51.078;13.740;2023-08-06T01:03:42;6.90;;;5.77;;
14603;SDS011;7388;51.078;13.740;2023-08-06T01:06:07;6.40;;;5.50;;
14603;SDS011;7388;51.078;13.740;2023-08-06T01:08:49;6.83;;;6.23;;
14603;SDS011;7388;51.078;13.740;2023-08-06T01:14:51;7.90;;;7.20;;
14603;SDS011;7388;51.078;13.740;2023-08-06T01:17:23;11.10;;;7.20;;
14603;SDS011;7388;51.078;13.740;2023-08-06T01:19:51;7.40;;;6.70;;
14603;SDS011;7388;51.078;13.740;2023-08-06T01:22:17;7.17;;;6.57;;
14603;SDS011;7388;51.078;13.740;2023-08-06T01:24:45;5.93;;;5.40;;
14603;SDS011;7388;51.078;13.740;2023-08-06T01:27:14;6.60;;;4.97;;
14603;SDS011;7388;51.078;13.740;2023-08-06T01:29:50;6.73;;;5.50;;
14603;SDS011;7388;51.078;13.740;2023-08-06T01:32:29;5.73;;;5.23;;
14603;SDS011;7388;51.078;13.740;2023-08-06T01:34:57;6.30;;;5.70;;
14603;SDS011;7388;51.078;13.740;2023-08-06T01:37:25;7.00;;;6.30;;
14603;SDS011;7388;51.078;13.740;2023-08-06T01:39:52;6.17;;;5.57;;
14603;SDS011;7388;51.078;13.740;2023-08-06T01:42:18;5.83;;;5.33;;
14603;SDS011;7388;51.078;13.740;2023-08-06T01:44:44;7.07;;;5.60;;
14603;SDS011;7388;51.078;13.740;2023-08-06T01:47:10;6.90;;;6.00;;
14603;SDS011;7388;51.078;13.740;2023-08-06T01:49:36;6.77;;;6.17;;
14603;SDS011;7388;51.078;13.740;2023-08-06T01:52:02;6.77;;;6.17;;
14603;SDS011;7388;51.078;13.740;2023-08-06T01:54:27;6.83;;;6.03;;
14603;SDS011;7388;51.078;13.740;2023-08-06T01:56:53;8.53;;;5.60;;
14603;SDS011;7388;51.078;13.740;2023-08-06T01:59:19;5.63;;;5.13;;
14603;SDS011;7388;51.078;13.740;2023-08-06T02:01:45;6.90;;;5.57;;
14603;SDS011;7388;51.078;13.740;2023-08-06T02:04:11;5.80;;;5.30;;
14603;SDS011;7388;51.078;13.740;2023-08-06T02:06:37;6.27;;;5.63;;
14603;SDS011;7388;51.078;13.740;2023-08-06T02:09:02;7.87;;;6.20;;
14603;SDS011;7388;51.078;13.740;2023-08-06T02:11:28;6.20;;;5.60;;
14603;SDS011;7388;51.078;13.740;2023-08-06T02:13:54;8.00;;;6.13;;
14603;SDS011;7388;51.078;13.740;2023-08-06T02:16:20;6.60;;;5.63;;
14603;SDS011;7388;51.078;13.740;2023-08-06T02:18:46;7.57;;;6.13;;
14603;SDS011;7388;51.078;13.740;2023-08-06T02:21:11;6.97;;;6.30;;
14603;SDS011;7388;51.078;13.740;2023-08-06T02:23:37;7.33;;;6.63;;
14603;SDS011;7388;51.078;13.740;2023-08-06T02:26:04;6.70;;;5.90;;
14603;SDS011;7388;51.078;13.740;2023-08-06T02:28:30;7.80;;;7.10;;
14603;SDS011;7388;51.078;13.740;2023-08-06T02:30:56;5.57;;;5.07;;
14603;SDS011;7388;51.078;13.740;2023-08-06T02:33:22;6.77;;;6.07;;
14603;SDS011;7388;51.078;13.740;2023-08-06T02:35:48;6.40;;;5.80;;
14603;SDS011;7388;51.078;13.740;2023-08-06T02:38:14;6.30;;;5.70;;
14603;SDS011;7388;51.078;13.740;2023-08-06T02:40:43;5.83;;;5.33;;
14603;SDS011;7388;51.078;13.740;2023-08-06T02:43:12;6.10;;;5.50;;
14603;SDS011;7388;51.078;13.740;2023-08-06T02:45:39;6.37;;;5.30;;
14603;SDS011;7388;51.078;13.740;2023-08-06T02:48:05;6.63;;;6.03;;
14603;SDS011;7388;51.078;13.740;2023-08-06T02:50:31;7.13;;;5.27;;
14603;SDS011;7388;51.078;13.740;2023-08-06T02:53:02;6.43;;;5.83;;
14603;SDS011;7388;51.078;13.740;2023-08-06T02:55:28;7.37;;;5.70;;
14603;SDS011;7388;51.078;13.740;2023-08-06T02:57:53;7.00;;;6.30;;
14603;SDS011;7388;51.078;13.740;2023-08-06T03:00:19;7.47;;;6.00;;
14603;SDS011;7388;51.078;13.740;2023-08-06T03:02:45;6.53;;;5.93;;
14603;SDS011;7388;51.078;13.740;2023-08-06T03:05:11;8.20;;;5.57;;
14603;SDS011;7388;51.078;13.740;2023-08-06T03:07:36;6.77;;;6.17;;
14603;SDS011;7388;51.078;13.740;2023-08-06T03:10:03;7.43;;;6.70;;
14603;SDS011;7388;51.078;13.740;2023-08-06T03:12:29;7.07;;;6.27;;
14603;SDS011;7388;51.078;13.740;2023-08-06T03:14:55;6.10;;;5.50;;
14603;SDS011;7388;51.078;13.740;2023-08-06T03:17:20;5.73;;;5.20;;
14603;SDS011;7388;51.078;13.740;2023-08-06T03:19:46;6.97;;;6.37;;
14603;SDS011;7388;51.078;13.740;2023-08-06T03:22:12;6.70;;;6.07;;
14603;SDS011;7388;51.078;13.740;2023-08-06T03:24:38;6.23;;;5.63;;
14603;SDS011;7388;51.078;13.740;2023-08-06T03:27:04;6.83;;;6.23;;
14603;SDS011;7388;51.078;13.740;2023-08-06T03:29:30;6.93;;;6.00;;
14603;SDS011;7388;51.078;13.740;2023-08-06T03:31:55;6.20;;;5.30;;
14603;SDS011;7388;51.078;13.740;2023-08-06T03:34:21;7.43;;;6.03;;
14603;SDS011;7388;51.078;13.740;2023-08-06T03:36:47;6.07;;;5.47;;
14603;SDS011;7388;51.078;13.740;2023-08-06T03:39:13;7.13;;;6.40;;
14603;SDS011;7388;51.078;13.740;2023-08-06T03:41:39;7.43;;;6.73;;
14603;SDS011;7388;51.078;13.740;2023-08-06T03:44:05;6.90;;;6.20;;
14603;SDS011;7388;51.078;13.740;2023-08-06T03:46:31;7.20;;;6.20;;
14603;SDS011;7388;51.078;13.740;2023-08-06T03:49:00;6.50;;;5.90;;
14603;SDS011;7388;51.078;13.740;2023-08-06T03:51:26;6.17;;;5.57;;
14603;SDS011;7388;51.078;13.740;2023-08-06T03:53:52;6.20;;;5.60;;
14603;SDS011;7388;51.078;13.740;2023-08-06T03:56:17;6.90;;;5.67;;
14603;SDS011;7388;51.078;13.740;2023-08-06T03:58:43;9.73;;;6.13;;
14603;SDS011;7388;51.078;13.740;2023-08-06T04:01:09;6.23;;;5.73;;
14603;SDS011;7388;51.078;13.740;2023-08-06T04:03:35;6.03;;;5.33;;
14603;SDS011;7388;51.078;13.740;2023-08-06T04:06:03;5.00;;;4.60;;
14603;SDS011;7388;51.078;13.740;2023-08-06T04:08:29;5.77;;;5.27;;
14603;SDS011;7388;51.078;13.740;2023-08-06T04:10:55;5.80;;;5.13;;
14603;SDS011;7388;51.078;13.740;2023-08-06T04:13:21;6.03;;;5.43;;
14603;SDS011;7388;51.078;13.740;2023-08-06T04:15:47;5.40;;;5.00;;
14603;SDS011;7388;51.078;13.740;2023-08-06T04:18:13;6.00;;;5.50;;
14603;SDS011;7388;51.078;13.740;2023-08-06T04:20:45;5.83;;;5.33;;
14603;SDS011;7388;51.078;13.740;2023-08-06T04:23:12;5.57;;;5.07;;
14603;SDS011;7388;51.078;13.740;2023-08-06T04:25:38;8.07;;;5.30;;
14603;SDS011;7388;51.078;13.740;2023-08-06T04:28:04;6.27;;;5.40;;
14603;SDS011;7388;51.078;13.740;2023-08-06T04:30:29;6.87;;;6.20;;
14603;SDS011;7388;51.078;13.740;2023-08-06T04:32:58;6.53;;;5.93;;
14603;SDS011;7388;51.078;13.740;2023-08-06T04:35:24;6.23;;;5.10;;
14603;SDS011;7388;51.078;13.740;2023-08-06T04:37:50;4.40;;;4.00;;
14603;SDS011;7388;51.078;13.740;2023-08-06T04:40:15;7.43;;;4.40;;
14603;SDS011;7388;51.078;13.740;2023-08-06T04:42:41;3.60;;;3.30;;
14603;SDS011;7388;51.078;13.740;2023-08-06T04:45:07;5.00;;;4.10;;
14603;SDS011;7388;51.078;13.740;2023-08-06T04:47:33;7.37;;;4.30;;
14603;SDS011;7388;51.078;13.740;2023-08-06T04:49:59;4.00;;;3.40;;
14603;SDS011;7388;51.078;13.740;2023-08-06T04:52:25;4.67;;;3.43;;
14603;SDS011;7388;51.078;13.740;2023-08-06T04:54:53;4.53;;;3.93;;
14603;SDS011;7388;51.078;13.740;2023-08-06T04:57:20;4.70;;;4.30;;
14603;SDS011;7388;51.078;13.740;2023-08-06T04:59:46;4.03;;;3.63;;
14603;SDS011;7388;51.078;13.740;2023-08-06T05:02:12;5.37;;;4.97;;
14603;SDS011;7388;51.078;13.740;2023-08-06T05:04:38;5.30;;;4.80;;
14603;SDS011;7388;51.078;13.740;2023-08-06T05:07:05;5.90;;;5.43;;
14603;SDS011;7388;51.078;13.740;2023-08-06T05:09:31;5.80;;;5.30;;
14603;SDS011;7388;51.078;13.740;2023-08-06T05:11:56;6.03;;;4.57;;
14603;SDS011;7388;51.078;13.740;2023-08-06T05:14:22;5.27;;;4.70;;
14603;SDS011;7388;51.078;13.740;2023-08-06T05:16:48;5.53;;;4.83;;
14603;SDS011;7388;51.078;13.740;2023-08-06T05:19:14;7.03;;;5.73;;
14603;SDS011;7388;51.078;13.740;2023-08-06T05:21:39;6.17;;;5.57;;
14603;SDS011;7388;51.078;13.740;2023-08-06T05:24:05;6.33;;;5.73;;
14603;SDS011;7388;51.078;13.740;2023-08-06T05:26:31;6.27;;;5.70;;
14603;SDS011;7388;51.078;13.740;2023-08-06T05:28:57;6.87;;;6.17;;
14603;SDS011;7388;51.078;13.740;2023-08-06T05:31:22;5.43;;;4.93;;
14603;SDS011;7388;51.078;13.740;2023-08-06T05:33:48;6.27;;;5.67;;
14603;SDS011;7388;51.078;13.740;2023-08-06T05:36:14;6.50;;;5.80;;
14603;SDS011;7388;51.078;13.740;2023-08-06T05:38:40;6.03;;;5.50;;
14603;SDS011;7388;51.078;13.740;2023-08-06T05:41:06;7.47;;;6.77;;
14603;SDS011;7388;51.078;13.740;2023-08-06T05:43:32;7.50;;;6.90;;
14603;SDS011;7388;51.078;13.740;2023-08-06T05:45:58;6.57;;;5.97;;
14603;SDS011;7388;51.078;13.740;2023-08-06T05:48:23;7.83;;;5.90;;
14603;SDS011;7388;51.078;13.740;2023-08-06T05:50:51;6.67;;;6.07;;
14603;SDS011;7388;51.078;13.740;2023-08-06T05:53:17;5.22;;;4.75;;
14603;SDS011;7388;51.078;13.740;2023-08-06T05:55:43;5.60;;;5.10;;
14603;SDS011;7388;51.078;13.740;2023-08-06T05:58:09;6.70;;;4.90;;
14603;SDS011;7388;51.078;13.740;2023-08-06T06:00:35;5.77;;;5.17;;
14603;SDS011;7388;51.078;13.740;2023-08-06T06:03:01;5.97;;;5.37;;
14603;SDS011;7388;51.078;13.740;2023-08-06T06:05:28;5.77;;;5.37;;
14603;SDS011;7388;51.078;13.740;2023-08-06T06:07:54;7.00;;;6.40;;
14603;SDS011;7388;51.078;13.740;2023-08-06T06:10:19;5.20;;;4.70;;
14603;SDS011;7388;51.078;13.740;2023-08-06T06:12:45;5.33;;;4.83;;
14603;SDS011;7388;51.078;13.740;2023-08-06T06:15:11;5.50;;;5.00;;
14603;SDS011;7388;51.078;13.740;2023-08-06T06:17:37;6.13;;;5.60;;
14603;SDS011;7388;51.078;13.740;2023-08-06T06:20:03;10.03;;;5.10;;
14603;SDS011;7388;51.078;13.740;2023-08-06T06:22:30;5.27;;;4.87;;
14603;SDS011;7388;51.078;13.740;2023-08-06T06:24:55;5.83;;;5.33;;
14603;SDS011;7388;51.078;13.740;2023-08-06T06:27:21;5.40;;;4.90;;
14603;SDS011;7388;51.078;13.740;2023-08-06T06:29:47;5.23;;;4.73;;
14603;SDS011;7388;51.078;13.740;2023-08-06T06:32:13;4.80;;;4.40;;
14603;SDS011;7388;51.078;13.740;2023-08-06T06:34:39;5.63;;;5.10;;
14603;SDS011;7388;51.078;13.740;2023-08-06T06:37:05;5.37;;;4.97;;
14603;SDS011;7388;51.078;13.740;2023-08-06T06:39:30;6.00;;;5.50;;
14603;SDS011;7388;51.078;13.740;2023-08-06T06:41:56;6.23;;;5.63;;
14603;SDS011;7388;51.078;13.740;2023-08-06T06:44:22;30.93;;;27.90;;
14603;SDS011;7388;51.078;13.740;2023-08-06T06:46:48;20.30;;;18.30;;
14603;SDS011;7388;51.078;13.740;2023-08-06T06:49:14;12.80;;;11.57;;
14603;SDS011;7388;51.078;13.740;2023-08-06T06:51:39;8.90;;;8.00;;
14603;SDS011;7388;51.078;13.740;2023-08-06T06:54:05;12.87;;;11.27;;
14603;SDS011;7388;51.078;13.740;2023-08-06T06:56:31;16.20;;;13.13;;
14603;SDS011;7388;51.078;13.740;2023-08-06T06:58:57;13.80;;;12.40;;
14603;SDS011;7388;51.078;13.740;2023-08-06T07:01:22;10.70;;;9.60;;
14603;SDS011;7388;51.078;13.740;2023-08-06T07:03:48;9.47;;;7.87;;
14603;SDS011;7388;51.078;13.740;2023-08-06T07:06:14;12.00;;;7.80;;
14603;SDS011;7388;51.078;13.740;2023-08-06T07:08:40;7.20;;;6.60;;
14603;SDS011;7388;51.078;13.740;2023-08-06T07:11:06;7.50;;;6.80;;
14603;SDS011;7388;51.078;13.740;2023-08-06T07:13:33;7.90;;;7.07;;
14603;SDS011;7388;51.078;13.740;2023-08-06T07:15:59;7.33;;;6.13;;
14603;SDS011;7388;51.078;13.740;2023-08-06T07:18:25;7.50;;;6.63;;
14603;SDS011;7388;51.078;13.740;2023-08-06T07:20:51;7.03;;;6.33;;
14603;SDS011;7388;51.078;13.740;2023-08-06T07:23:20;10.20;;;6.77;;
14603;SDS011;7388;51.078;13.740;2023-08-06T07:25:46;8.03;;;7.33;;
14603;SDS011;7388;51.078;13.740;2023-08-06T07:28:16;7.27;;;6.57;;
14603;SDS011;7388;51.078;13.740;2023-08-06T07:30:42;7.33;;;6.63;;
14603;SDS011;7388;51.078;13.740;2023-08-06T07:33:09;8.67;;;7.07;;
14603;SDS011;7388;51.078;13.740;2023-08-06T07:35:35;7.93;;;7.27;;
14603;SDS011;7388;51.078;13.740;2023-08-06T07:38:01;6.67;;;6.00;;
14603;SDS011;7388;51.078;13.740;2023-08-06T07:40:27;7.40;;;6.70;;
14603;SDS011;7388;51.078;13.740;2023-08-06T07:42:53;6.57;;;5.93;;
14603;SDS011;7388;51.078;13.740;2023-08-06T07:45:19;7.23;;;6.53;;
14603;SDS011;7388;51.078;13.740;2023-08-06T07:47:45;8.60;;;7.20;;
14603;SDS011;7388;51.078;13.740;2023-08-06T07:50:11;7.60;;;6.90;;
14603;SDS011;7388;51.078;13.740;2023-08-06T07:52:38;9.23;;;7.03;;
14603;SDS011;7388;51.078;13.740;2023-08-06T07:55:04;6.83;;;6.13;;
14603;SDS011;7388;51.078;13.740;2023-08-06T07:57:30;7.23;;;6.60;;
14603;SDS011;7388;51.078;13.740;2023-08-06T07:59:57;8.90;;;7.37;;
14603;SDS011;7388;51.078;13.740;2023-08-06T08:02:23;6.37;;;5.77;;
14603;SDS011;7388;51.078;13.740;2023-08-06T08:04:49;6.10;;;5.47;;
14603;SDS011;7388;51.078;13.740;2023-08-06T08:07:15;9.50;;;6.53;;
14603;SDS011;7388;51.078;13.740;2023-08-06T08:09:40;12.03;;;6.47;;
14603;SDS011;7388;51.078;13.740;2023-08-06T08:12:06;6.47;;;5.70;;
14603;SDS011;7388;51.078;13.740;2023-08-06T08:14:32;6.63;;;6.03;;
14603;SDS011;7388;51.078;13.740;2023-08-06T08:17:04;7.77;;;6.63;;
14603;SDS011;7388;51.078;13.740;2023-08-06T08:19:31;5.00;;;4.50;;
14603;SDS011;7388;51.078;13.740;2023-08-06T08:21:57;8.03;;;5.23;;
14603;SDS011;7388;51.078;13.740;2023-08-06T08:24:23;5.40;;;4.90;;
14603;SDS011;7388;51.078;13.740;2023-08-06T08:26:52;4.90;;;4.40;;
14603;SDS011;7388;51.078;13.740;2023-08-06T08:29:21;4.90;;;4.17;;
14603;SDS011;7388;51.078;13.740;2023-08-06T08:31:47;4.43;;;4.03;;
14603;SDS011;7388;51.078;13.740;2023-08-06T08:34:17;5.63;;;2.90;;
14603;SDS011;7388;51.078;13.740;2023-08-06T08:36:43;4.17;;;3.77;;
14603;SDS011;7388;51.078;13.740;2023-08-06T08:39:11;3.87;;;3.47;;
14603;SDS011;7388;51.078;13.740;2023-08-06T08:41:38;3.60;;;3.30;;
14603;SDS011;7388;51.078;13.740;2023-08-06T08:44:05;4.20;;;3.80;;
14603;SDS011;7388;51.078;13.740;2023-08-06T08:46:40;4.83;;;3.90;;
14603;SDS011;7388;51.078;13.740;2023-08-06T08:49:07;4.40;;;4.00;;
14603;SDS011;7388;51.078;13.740;2023-08-06T08:51:33;4.67;;;3.77;;
14603;SDS011;7388;51.078;13.740;2023-08-06T08:54:03;4.27;;;3.70;;
14603;SDS011;7388;51.078;13.740;2023-08-06T08:56:29;4.00;;;3.63;;
14603;SDS011;7388;51.078;13.740;2023-08-06T08:58:56;4.60;;;3.10;;
14603;SDS011;7388;51.078;13.740;2023-08-06T09:01:22;4.13;;;3.50;;
14603;SDS011;7388;51.078;13.740;2023-08-06T09:03:49;5.00;;;3.90;;
14603;SDS011;7388;51.078;13.740;2023-08-06T09:06:17;5.27;;;3.90;;
14603;SDS011;7388;51.078;13.740;2023-08-06T09:08:47;4.23;;;3.60;;
14603;SDS011;7388;51.078;13.740;2023-08-06T09:11:20;3.40;;;3.10;;
14603;SDS011;7388;51.078;13.740;2023-08-06T09:13:47;3.97;;;3.57;;
14603;SDS011;7388;51.078;13.740;2023-08-06T09:16:13;5.70;;;4.13;;
14603;SDS011;7388;51.078;13.740;2023-08-06T09:18:39;4.10;;;3.70;;
14603;SDS011;7388;51.078;13.740;2023-08-06T09:21:05;4.23;;;3.83;;
14603;SDS011;7388;51.078;13.740;2023-08-06T09:23:38;3.70;;;3.40;;
14603;SDS011;7388;51.078;13.740;2023-08-06T09:26:03;3.53;;;3.23;;
14603;SDS011;7388;51.078;13.740;2023-08-06T09:28:38;4.00;;;3.37;;
14603;SDS011;7388;51.078;13.740;2023-08-06T09:31:07;4.47;;;4.07;;
14603;SDS011;7388;51.078;13.740;2023-08-06T09:33:33;5.10;;;3.13;;
14603;SDS011;7388;51.078;13.740;2023-08-06T09:36:08;5.00;;;3.63;;
14603;SDS011;7388;51.078;13.740;2023-08-06T09:38:37;3.83;;;3.43;;
14603;SDS011;7388;51.078;13.740;2023-08-06T09:41:05;4.40;;;4.00;;
14603;SDS011;7388;51.078;13.740;2023-08-06T09:43:39;3.63;;;3.13;;
14603;SDS011;7388;51.078;13.740;2023-08-06T09:46:11;4.50;;;4.10;;
14603;SDS011;7388;51.078;13.740;2023-08-06T09:48:44;5.30;;;4.00;;
14603;SDS011;7388;51.078;13.740;2023-08-06T09:51:11;5.60;;;4.63;;
14603;SDS011;7388;51.078;13.740;2023-08-06T09:53:40;5.80;;;4.50;;
14603;SDS011;7388;51.078;13.740;2023-08-06T09:56:06;5.00;;;4.20;;
14603;SDS011;7388;51.078;13.740;2023-08-06T09:58:32;5.97;;;5.40;;
14603;SDS011;7388;51.078;13.740;2023-08-06T10:00:59;5.60;;;4.50;;
14603;SDS011;7388;51.078;13.740;2023-08-06T10:03:26;6.37;;;4.30;;
14603;SDS011;7388;51.078;13.740;2023-08-06T10:05:55;4.70;;;3.60;;
14603;SDS011;7388;51.078;13.740;2023-08-06T10:08:21;5.00;;;4.60;;
14603;SDS011;7388;51.078;13.740;2023-08-06T10:10:48;4.53;;;4.13;;
14603;SDS011;7388;51.078;13.740;2023-08-06T10:13:13;6.50;;;5.90;;
14603;SDS011;7388;51.078;13.740;2023-08-06T10:15:40;6.00;;;5.30;;
14603;SDS011;7388;51.078;13.740;2023-08-06T10:18:07;4.97;;;4.33;;
14603;SDS011;7388;51.078;13.740;2023-08-06T10:20:34;5.30;;;4.90;;
14603;SDS011;7388;51.078;13.740;2023-08-06T10:23:04;4.83;;;4.43;;
14603;SDS011;7388;51.078;13.740;2023-08-06T10:25:31;8.60;;;5.10;;
14603;SDS011;7388;51.078;13.740;2023-08-06T10:28:07;5.90;;;4.93;;
14603;SDS011;7388;51.078;13.740;2023-08-06T10:30:45;4.93;;;3.87;;
14603;SDS011;7388;51.078;13.740;2023-08-06T10:33:12;5.20;;;4.40;;
14603;SDS011;7388;51.078;13.740;2023-08-06T10:35:47;5.37;;;4.93;;
14603;SDS011;7388;51.078;13.740;2023-08-06T10:38:22;5.43;;;4.50;;
14603;SDS011;7388;51.078;13.740;2023-08-06T10:43:34;5.33;;;4.33;;
14603;SDS011;7388;51.078;13.740;2023-08-06T10:46:03;5.20;;;4.70;;
14603;SDS011;7388;51.078;13.740;2023-08-06T10:48:34;4.97;;;4.57;;
14603;SDS011;7388;51.078;13.740;2023-08-06T10:51:11;4.50;;;4.10;;
14603;SDS011;7388;51.078;13.740;2023-08-06T10:53:38;6.17;;;4.57;;
14603;SDS011;7388;51.078;13.740;2023-08-06T10:56:11;5.20;;;4.80;;
14603;SDS011;7388;51.078;13.740;2023-08-06T10:58:39;4.90;;;4.20;;
14603;SDS011;7388;51.078;13.740;2023-08-06T11:01:05;4.23;;;3.83;;
14603;SDS011;7388;51.078;13.740;2023-08-06T11:03:31;6.87;;;4.43;;
14603;SDS011;7388;51.078;13.740;2023-08-06T11:06:01;5.00;;;4.60;;
14603;SDS011;7388;51.078;13.740;2023-08-06T11:08:29;4.50;;;4.10;;
14603;SDS011;7388;51.078;13.740;2023-08-06T11:11:14;4.93;;;4.37;;
14603;SDS011;7388;51.078;13.740;2023-08-06T11:13:41;5.07;;;3.30;;
14603;SDS011;7388;51.078;13.740;2023-08-06T11:16:08;4.40;;;4.00;;
14603;SDS011;7388;51.078;13.740;2023-08-06T11:18:35;5.70;;;4.60;;
14603;SDS011;7388;51.078;13.740;2023-08-06T11:21:01;4.80;;;4.00;;
14603;SDS011;7388;51.078;13.740;2023-08-06T11:23:27;3.80;;;3.40;;
14603;SDS011;7388;51.078;13.740;2023-08-06T11:25:54;3.93;;;3.53;;
14603;SDS011;7388;51.078;13.740;2023-08-06T11:28:20;3.57;;;3.27;;
14603;SDS011;7388;51.078;13.740;2023-08-06T11:30:49;4.60;;;4.10;;
14603;SDS011;7388;51.078;13.740;2023-08-06T11:33:25;5.03;;;4.53;;
14603;SDS011;7388;51.078;13.740;2023-08-06T11:35:55;7.27;;;4.80;;
14603;SDS011;7388;51.078;13.740;2023-08-06T11:38:22;4.33;;;3.50;;
14603;SDS011;7388;51.078;13.740;2023-08-06T11:40:52;4.90;;;4.50;;
14603;SDS011;7388;51.078;13.740;2023-08-06T11:43:18;4.37;;;3.73;;
14603;SDS011;7388;51.078;13.740;2023-08-06T11:45:45;5.53;;;3.90;;
14603;SDS011;7388;51.078;13.740;2023-08-06T11:48:11;4.13;;;3.83;;
14603;SDS011;7388;51.078;13.740;2023-08-06T11:50:37;3.93;;;3.63;;
14603;SDS011;7388;51.078;13.740;2023-08-06T11:53:06;4.53;;;4.13;;
14603;SDS011;7388;51.078;13.740;2023-08-06T11:55:32;4.20;;;3.80;;
14603;SDS011;7388;51.078;13.740;2023-08-06T11:57:59;5.33;;;4.13;;
14603;SDS011;7388;51.078;13.740;2023-08-06T12:00:28;4.57;;;4.17;;
14603;SDS011;7388;51.078;13.740;2023-08-06T12:02:54;4.83;;;4.37;;
14603;SDS011;7388;51.078;13.740;2023-08-06T12:05:31;5.20;;;4.13;;
14603;SDS011;7388;51.078;13.740;2023-08-06T12:08:01;4.10;;;3.80;;
14603;SDS011;7388;51.078;13.740;2023-08-06T12:10:29;4.77;;;4.27;;
14603;SDS011;7388;51.078;13.740;2023-08-06T12:12:56;5.13;;;3.93;;
14603;SDS011;7388;51.078;13.740;2023-08-06T12:15:22;4.03;;;3.20;;
14603;SDS011;7388;51.078;13.740;2023-08-06T12:17:49;7.37;;;4.73;;
14603;SDS011;7388;51.078;13.740;2023-08-06T12:20:15;4.10;;;3.70;;
14603;SDS011;7388;51.078;13.740;2023-08-06T12:22:40;4.00;;;3.70;;
14603;SDS011;7388;51.078;13.740;2023-08-06T12:25:10;5.77;;;4.63;;
14603;SDS011;7388;51.078;13.740;2023-08-06T12:27:42;4.77;;;4.37;;
14603;SDS011;7388;51.078;13.740;2023-08-06T12:30:10;3.93;;;3.63;;
14603;SDS011;7388;51.078;13.740;2023-08-06T12:32:36;4.73;;;4.33;;
14603;SDS011;7388;51.078;13.740;2023-08-06T12:35:02;5.17;;;4.47;;
14603;SDS011;7388;51.078;13.740;2023-08-06T12:37:29;4.90;;;4.50;;
14603;SDS011;7388;51.078;13.740;2023-08-06T12:39:55;5.20;;;4.70;;
14603;SDS011;7388;51.078;13.740;2023-08-06T12:42:21;6.77;;;4.57;;
14603;SDS011;7388;51.078;13.740;2023-08-06T12:44:50;4.03;;;3.73;;
14603;SDS011;7388;51.078;13.740;2023-08-06T12:47:16;4.90;;;4.20;;
14603;SDS011;7388;51.078;13.740;2023-08-06T12:49:43;5.63;;;4.60;;
14603;SDS011;7388;51.078;13.740;2023-08-06T12:52:09;5.47;;;4.90;;
14603;SDS011;7388;51.078;13.740;2023-08-06T12:54:37;4.60;;;4.10;;
14603;SDS011;7388;51.078;13.740;2023-08-06T12:57:04;4.30;;;3.90;;
14603;SDS011;7388;51.078;13.740;2023-08-06T12:59:30;4.40;;;4.00;;
14603;SDS011;7388;51.078;13.740;2023-08-06T13:01:56;4.60;;;4.20;;
14603;SDS011;7388;51.078;13.740;2023-08-06T13:04:22;4.70;;;4.30;;
14603;SDS011;7388;51.078;13.740;2023-08-06T13:06:48;3.83;;;3.50;;
14603;SDS011;7388;51.078;13.740;2023-08-06T13:09:14;4.50;;;3.33;;
14603;SDS011;7388;51.078;13.740;2023-08-06T13:11:41;3.93;;;3.53;;
14603;SDS011;7388;51.078;13.740;2023-08-06T13:14:08;4.40;;;3.57;;
14603;SDS011;7388;51.078;13.740;2023-08-06T13:16:36;3.50;;;3.03;;
14603;SDS011;7388;51.078;13.740;2023-08-06T13:19:03;3.73;;;3.40;;
14603;SDS011;7388;51.078;13.740;2023-08-06T13:24:16;3.77;;;3.43;;
14603;SDS011;7388;51.078;13.740;2023-08-06T13:26:43;4.53;;;4.13;;
14603;SDS011;7388;51.078;13.740;2023-08-06T13:29:09;4.33;;;3.93;;
14603;SDS011;7388;51.078;13.740;2023-08-06T13:31:36;6.90;;;3.40;;
14603;SDS011;7388;51.078;13.740;2023-08-06T13:34:02;4.00;;;3.37;;
14603;SDS011;7388;51.078;13.740;2023-08-06T13:36:28;3.93;;;3.50;;
14603;SDS011;7388;51.078;13.740;2023-08-06T13:38:55;3.47;;;3.17;;
14603;SDS011;7388;51.078;13.740;2023-08-06T13:41:21;3.87;;;3.20;;
14603;SDS011;7388;51.078;13.740;2023-08-06T13:43:47;3.60;;;3.30;;
14603;SDS011;7388;51.078;13.740;2023-08-06T13:46:13;3.27;;;2.90;;
14603;SDS011;7388;51.078;13.740;2023-08-06T13:48:43;3.77;;;3.40;;
14603;SDS011;7388;51.078;13.740;2023-08-06T13:51:10;3.10;;;2.80;;
14603;SDS011;7388;51.078;13.740;2023-08-06T13:53:37;3.83;;;3.20;;
14603;SDS011;7388;51.078;13.740;2023-08-06T13:56:04;4.03;;;3.70;;
14603;SDS011;7388;51.078;13.740;2023-08-06T13:58:31;3.80;;;3.40;;
14603;SDS011;7388;51.078;13.740;2023-08-06T14:00:57;4.27;;;3.60;;
14603;SDS011;7388;51.078;13.740;2023-08-06T14:03:23;4.00;;;3.70;;
14603;SDS011;7388;51.078;13.740;2023-08-06T14:05:49;3.97;;;3.67;;
14603;SDS011;7388;51.078;13.740;2023-08-06T14:08:15;3.17;;;2.77;;
14603;SDS011;7388;51.078;13.740;2023-08-06T14:10:43;3.57;;;3.27;;
14603;SDS011;7388;51.078;13.740;2023-08-06T14:13:10;3.30;;;3.10;;
14603;SDS011;7388;51.078;13.740;2023-08-06T14:15:35;5.20;;;3.33;;
14603;SDS011;7388;51.078;13.740;2023-08-06T14:18:04;3.80;;;3.50;;
14603;SDS011;7388;51.078;13.740;2023-08-06T14:20:30;3.60;;;3.30;;
14603;SDS011;7388;51.078;13.740;2023-08-06T14:22:56;3.93;;;3.53;;
14603;SDS011;7388;51.078;13.740;2023-08-06T14:25:22;4.13;;;3.70;;
14603;SDS011;7388;51.078;13.740;2023-08-06T14:27:48;4.33;;;3.20;;
14603;SDS011;7388;51.078;13.740;2023-08-06T14:30:14;3.43;;;3.03;;
14603;SDS011;7388;51.078;13.740;2023-08-06T14:32:39;3.93;;;3.63;;
14603;SDS011;7388;51.078;13.740;2023-08-06T14:35:05;4.07;;;3.67;;
14603;SDS011;7388;51.078;13.740;2023-08-06T14:37:32;5.60;;;5.10;;
14603;SDS011;7388;51.078;13.740;2023-08-06T14:39:57;5.60;;;4.30;;
14603;SDS011;7388;51.078;13.740;2023-08-06T14:42:23;4.20;;;3.80;;
14603;SDS011;7388;51.078;13.740;2023-08-06T14:44:49;4.70;;;4.30;;
14603;SDS011;7388;51.078;13.740;2023-08-06T14:47:15;4.03;;;3.73;;
14603;SDS011;7388;51.078;13.740;2023-08-06T14:49:41;4.60;;;4.20;;
14603;SDS011;7388;51.078;13.740;2023-08-06T14:52:06;13.20;;;4.73;;
14603;SDS011;7388;51.078;13.740;2023-08-06T14:54:32;4.50;;;4.10;;